sensor_id;sensor_type;location;lat;lon;timestamp;pressure;altitude;pressure_sealevel;temperature;humidity
48892;BME280;50130;52.150;5.236;2023-03-23T00:02:49;99953.0;;;13.27;95.03
48892;BME280;50130;52.150;5.236;2023-03-23T00:04:25;99957.0;;;13.21;94.73
48892;BME280;50130;52.150;5.236;2023-03-23T00:06:01;99967.0;;;13.17;94.91
48892;BME280;50130;52.150;5.236;2023-03-23T00:09:15;99965.0;;;13.16;95.03
48892;BME280;50130;52.150;5.236;2023-03-23T00:10:51;99962.0;;;13.17;95.1
48892;BME280;50130;52.150;5.236;2023-03-23T00:12:29;99961.0;;;13.16;95.03
48892;BME280;50130;52.150;5.236;2023-03-23T00:14:08;99963.0;;;13.25;94.67
48892;BME280;50130;52.150;5.236;2023-03-23T00:17:22;99966.0;;;13.25;94.12
48892;BME280;50130;52.150;5.236;2023-03-23T00:19:00;99969.0;;;13.33;93.65
48892;BME280;50130;52.150;5.236;2023-03-23T00:20:38;99964.0;;;13.39;93.56
48892;BME280;50130;52.150;5.236;2023-03-23T00:23:53;99960.0;;;13.33;93.29
48892;BME280;50130;52.150;5.236;2023-03-23T00:25:29;99957.0;;;13.47;93.23
48892;BME280;50130;52.150;5.236;2023-03-23T00:27:05;99957.0;;;13.48;93.23
48892;BME280;50130;52.150;5.236;2023-03-23T00:30:18;99952.0;;;13.25;93.19
48892;BME280;50130;52.150;5.236;2023-03-23T00:31:53;99955.0;;;13.33;93.05
48892;BME280;50130;52.150;5.236;2023-03-23T00:33:31;99946.0;;;13.28;92.82
48892;BME280;50130;52.150;5.236;2023-03-23T00:35:09;99950.0;;;13.39;93.2
48892;BME280;50130;52.150;5.236;2023-03-23T00:38:23;99946.0;;;13.45;92.33
48892;BME280;50130;52.150;5.236;2023-03-23T00:40:00;99939.0;;;13.36;92.18
48892;BME280;50130;52.150;5.236;2023-03-23T00:41:36;99931.0;;;13.33;92.05
48892;BME280;50130;52.150;5.236;2023-03-23T00:44:49;99930.0;;;13.34;92.1
48892;BME280;50130;52.150;5.236;2023-03-23T00:46:25;99934.0;;;13.37;91.58
48892;BME280;50130;52.150;5.236;2023-03-23T00:48:01;99934.0;;;13.44;91.34
48892;BME280;50130;52.150;5.236;2023-03-23T00:51:14;99932.0;;;13.39;91.76
48892;BME280;50130;52.150;5.236;2023-03-23T00:52:50;99922.0;;;13.5;91.19
48892;BME280;50130;52.150;5.236;2023-03-23T00:54:27;99925.0;;;13.58;90.66
48892;BME280;50130;52.150;5.236;2023-03-23T00:56:04;99924.0;;;13.61;90.14
48892;BME280;50130;52.150;5.236;2023-03-23T00:59:17;99920.0;;;13.61;89.86
48892;BME280;50130;52.150;5.236;2023-03-23T01:00:54;99928.0;;;13.54;90.22
48892;BME280;50130;52.150;5.236;2023-03-23T01:02:30;99924.0;;;13.55;89.99
48892;BME280;50130;52.150;5.236;2023-03-23T01:05:45;99912.0;;;13.53;90.56
48892;BME280;50130;52.150;5.236;2023-03-23T01:07:22;99906.0;;;13.54;89.98
48892;BME280;50130;52.150;5.236;2023-03-23T01:08:58;99906.0;;;13.68;89.62
48892;BME280;50130;52.150;5.236;2023-03-23T01:12:11;99907.0;;;13.57;90.37
48892;BME280;50130;52.150;5.236;2023-03-23T01:13:47;99910.0;;;13.6;89.57
48892;BME280;50130;52.150;5.236;2023-03-23T01:15:23;99908.0;;;13.67;89.73
48892;BME280;50130;52.150;5.236;2023-03-23T01:16:59;99922.0;;;13.79;89.17
48892;BME280;50130;52.150;5.236;2023-03-23T01:20:14;99924.0;;;13.77;88.64
48892;BME280;50130;52.150;5.236;2023-03-23T01:21:50;99922.0;;;13.63;89.46
48892;BME280;50130;52.150;5.236;2023-03-23T01:23:27;99915.0;;;13.67;89.04
48892;BME280;50130;52.150;5.236;2023-03-23T01:26:40;99891.0;;;13.57;89.05
48892;BME280;50130;52.150;5.236;2023-03-23T01:28:16;99895.0;;;13.61;89.46
48892;BME280;50130;52.150;5.236;2023-03-23T01:29:52;99886.0;;;13.55;89.78
48892;BME280;50130;52.150;5.236;2023-03-23T01:33:04;99889.0;;;13.6;89.49
48892;BME280;50130;52.150;5.236;2023-03-23T01:34:40;99880.0;;;13.6;89.0
48892;BME280;50130;52.150;5.236;2023-03-23T01:36:18;99887.0;;;13.63;89.21
48892;BME280;50130;52.150;5.236;2023-03-23T01:37:57;99881.0;;;13.49;88.78
48892;BME280;50130;52.150;5.236;2023-03-23T01:41:11;99889.0;;;13.49;89.44
48892;BME280;50130;52.150;5.236;2023-03-23T01:42:50;99880.0;;;13.53;89.43
48892;BME280;50130;52.150;5.236;2023-03-23T01:45:24;99876.0;;;13.57;88.47
48892;BME280;50130;52.150;5.236;2023-03-23T01:47:02;99877.0;;;13.57;88.87
48892;BME280;50130;52.150;5.236;2023-03-23T01:48:39;99890.0;;;13.5;88.95
48892;BME280;50130;52.150;5.236;2023-03-23T01:51:56;99875.0;;;13.54;89.16
48892;BME280;50130;52.150;5.236;2023-03-23T01:53:38;99875.0;;;13.63;88.72
48892;BME280;50130;52.150;5.236;2023-03-23T01:55:17;99885.0;;;13.56;89.0
48892;BME280;50130;52.150;5.236;2023-03-23T01:56:55;99885.0;;;13.5;89.29
48892;BME280;50130;52.150;5.236;2023-03-23T02:00:14;99877.0;;;13.5;88.87
48892;BME280;50130;52.150;5.236;2023-03-23T02:01:51;99873.0;;;13.51;89.06
48892;BME280;50130;52.150;5.236;2023-03-23T02:03:29;99870.0;;;13.42;89.81
48892;BME280;50130;52.150;5.236;2023-03-23T02:05:10;99868.0;;;13.46;89.2
48892;BME280;50130;52.150;5.236;2023-03-23T02:08:27;99869.0;;;13.52;88.76
48892;BME280;50130;52.150;5.236;2023-03-23T02:10:05;99867.0;;;13.6;88.33
48892;BME280;50130;52.150;5.236;2023-03-23T02:11:41;99859.0;;;13.52;88.66
48892;BME280;50130;52.150;5.236;2023-03-23T02:14:55;99855.0;;;13.52;89.03
48892;BME280;50130;52.150;5.236;2023-03-23T02:16:34;99859.0;;;13.5;88.64
48892;BME280;50130;52.150;5.236;2023-03-23T02:18:31;99858.0;;;13.67;88.35
48892;BME280;50130;52.150;5.236;2023-03-23T02:20:23;99868.0;;;13.76;87.9
48892;BME280;50130;52.150;5.236;2023-03-23T02:22:22;99865.0;;;13.62;87.98
48892;BME280;50130;52.150;5.236;2023-03-23T02:25:50;99862.0;;;13.7;87.89
48892;BME280;50130;52.150;5.236;2023-03-23T02:27:50;99865.0;;;13.68;87.79
48892;BME280;50130;52.150;5.236;2023-03-23T02:30:15;99866.0;;;13.69;88.14
48892;BME280;50130;52.150;5.236;2023-03-23T02:32:10;99860.0;;;13.77;87.77
48892;BME280;50130;52.150;5.236;2023-03-23T02:33:54;99862.0;;;13.76;87.62
48892;BME280;50130;52.150;5.236;2023-03-23T02:35:34;99867.0;;;13.75;87.57
48892;BME280;50130;52.150;5.236;2023-03-23T02:37:16;99870.0;;;13.83;87.16
48892;BME280;50130;52.150;5.236;2023-03-23T02:39:01;99870.0;;;13.61;88.61
48892;BME280;50130;52.150;5.236;2023-03-23T02:40:42;99866.0;;;13.62;88.24
48892;BME280;50130;52.150;5.236;2023-03-23T02:44:04;99866.0;;;13.58;87.93
48892;BME280;50130;52.150;5.236;2023-03-23T02:45:42;99864.0;;;13.57;88.14
48892;BME280;50130;52.150;5.236;2023-03-23T02:47:23;99866.0;;;13.6;88.62
48892;BME280;50130;52.150;5.236;2023-03-23T02:49:02;99852.0;;;13.61;88.16
48892;BME280;50130;52.150;5.236;2023-03-23T02:52:24;99868.0;;;13.66;87.76
48892;BME280;50130;52.150;5.236;2023-03-23T02:54:04;99867.0;;;13.66;87.29
48892;BME280;50130;52.150;5.236;2023-03-23T02:55:43;99869.0;;;13.55;87.52
48892;BME280;50130;52.150;5.236;2023-03-23T02:57:20;99869.0;;;13.71;87.61
48892;BME280;50130;52.150;5.236;2023-03-23T03:00:36;99870.0;;;13.66;87.72
48892;BME280;50130;52.150;5.236;2023-03-23T03:02:14;99850.0;;;13.81;87.24
48892;BME280;50130;52.150;5.236;2023-03-23T03:03:54;99859.0;;;13.84;87.19
48892;BME280;50130;52.150;5.236;2023-03-23T03:09:29;99859.0;;;13.86;86.63
48892;BME280;50130;52.150;5.236;2023-03-23T03:11:12;99853.0;;;13.78;87.37
48892;BME280;50130;52.150;5.236;2023-03-23T03:12:55;99858.0;;;13.82;86.77
48892;BME280;50130;52.150;5.236;2023-03-23T03:14:38;99855.0;;;13.83;86.68
48892;BME280;50130;52.150;5.236;2023-03-23T03:16:23;99855.0;;;13.74;87.29
48892;BME280;50130;52.150;5.236;2023-03-23T03:19:49;99855.0;;;13.66;87.22
48892;BME280;50130;52.150;5.236;2023-03-23T03:21:31;99853.0;;;13.69;87.24
48892;BME280;50130;52.150;5.236;2023-03-23T03:23:11;99855.0;;;13.76;86.58
48892;BME280;50130;52.150;5.236;2023-03-23T03:24:50;99845.0;;;13.68;86.35
48892;BME280;50130;52.150;5.236;2023-03-23T03:28:06;99841.0;;;13.71;86.38
48892;BME280;50130;52.150;5.236;2023-03-23T03:29:44;99838.0;;;13.71;86.82
48892;BME280;50130;52.150;5.236;2023-03-23T03:31:24;99847.0;;;13.75;86.46
48892;BME280;50130;52.150;5.236;2023-03-23T03:33:04;99840.0;;;13.75;86.79
48892;BME280;50130;52.150;5.236;2023-03-23T03:36:18;99842.0;;;13.73;86.17
48892;BME280;50130;52.150;5.236;2023-03-23T03:37:57;99832.0;;;13.8;86.01
48892;BME280;50130;52.150;5.236;2023-03-23T03:41:19;99831.0;;;13.83;85.84
48892;BME280;50130;52.150;5.236;2023-03-23T03:44:31;99830.0;;;13.83;85.5
48892;BME280;50130;52.150;5.236;2023-03-23T03:46:09;99833.0;;;13.85;85.87
48892;BME280;50130;52.150;5.236;2023-03-23T03:47:45;99836.0;;;13.88;86.05
48892;BME280;50130;52.150;5.236;2023-03-23T03:50:57;99838.0;;;13.99;85.83
48892;BME280;50130;52.150;5.236;2023-03-23T03:52:33;99839.0;;;13.9;86.18
48892;BME280;50130;52.150;5.236;2023-03-23T03:54:11;99839.0;;;13.86;85.93
48892;BME280;50130;52.150;5.236;2023-03-23T03:57:22;99839.0;;;13.87;85.88
48892;BME280;50130;52.150;5.236;2023-03-23T03:58:59;99836.0;;;13.94;85.49
48892;BME280;50130;52.150;5.236;2023-03-23T04:00:35;99833.0;;;13.88;86.1
48892;BME280;50130;52.150;5.236;2023-03-23T04:02:11;99824.0;;;13.82;86.59
48892;BME280;50130;52.150;5.236;2023-03-23T04:05:23;99827.0;;;13.76;86.52
48892;BME280;50130;52.150;5.236;2023-03-23T04:06:59;99832.0;;;13.88;85.66
48892;BME280;50130;52.150;5.236;2023-03-23T04:08:36;99835.0;;;13.8;85.71
48892;BME280;50130;52.150;5.236;2023-03-23T04:11:49;99830.0;;;13.87;85.67
48892;BME280;50130;52.150;5.236;2023-03-23T04:13:25;99839.0;;;13.89;85.3
48892;BME280;50130;52.150;5.236;2023-03-23T04:15:01;99834.0;;;13.97;85.35
48892;BME280;50130;52.150;5.236;2023-03-23T04:18:15;99831.0;;;14.02;85.07
48892;BME280;50130;52.150;5.236;2023-03-23T04:19:53;99845.0;;;14.05;85.2
48892;BME280;50130;52.150;5.236;2023-03-23T04:21:29;99838.0;;;13.99;84.88
48892;BME280;50130;52.150;5.236;2023-03-23T04:23:06;99841.0;;;13.9;85.3
48892;BME280;50130;52.150;5.236;2023-03-23T04:26:18;99843.0;;;13.85;85.6
48892;BME280;50130;52.150;5.236;2023-03-23T04:27:54;99845.0;;;13.85;85.39
48892;BME280;50130;52.150;5.236;2023-03-23T04:29:30;99839.0;;;13.87;84.87
48892;BME280;50130;52.150;5.236;2023-03-23T04:32:42;99841.0;;;13.84;84.2
48892;BME280;50130;52.150;5.236;2023-03-23T04:34:18;99848.0;;;13.83;84.0
48892;BME280;50130;52.150;5.236;2023-03-23T04:35:56;99861.0;;;13.81;84.75
48892;BME280;50130;52.150;5.236;2023-03-23T04:39:14;99857.0;;;13.74;85.07
48892;BME280;50130;52.150;5.236;2023-03-23T04:40:51;99862.0;;;13.78;84.61
48892;BME280;50130;52.150;5.236;2023-03-23T04:42:29;99851.0;;;13.8;84.12
48892;BME280;50130;52.150;5.236;2023-03-23T04:44:07;99859.0;;;13.77;83.95
48892;BME280;50130;52.150;5.236;2023-03-23T04:47:19;99867.0;;;13.78;84.46
48892;BME280;50130;52.150;5.236;2023-03-23T04:48:56;99864.0;;;13.74;84.2
48892;BME280;50130;52.150;5.236;2023-03-23T04:50:33;99881.0;;;13.69;83.98
48892;BME280;50130;52.150;5.236;2023-03-23T04:53:45;99873.0;;;13.69;84.28
48892;BME280;50130;52.150;5.236;2023-03-23T04:55:21;99875.0;;;13.66;85.0
48892;BME280;50130;52.150;5.236;2023-03-23T04:56:57;99876.0;;;13.65;83.58
48892;BME280;50130;52.150;5.236;2023-03-23T05:00:10;99882.0;;;13.64;84.05
48892;BME280;50130;52.150;5.236;2023-03-23T05:01:47;99891.0;;;13.75;84.19
48892;BME280;50130;52.150;5.236;2023-03-23T05:03:23;99899.0;;;13.59;85.87
48892;BME280;50130;52.150;5.236;2023-03-23T05:04:59;99895.0;;;13.6;87.63
48892;BME280;50130;52.150;5.236;2023-03-23T05:08:11;99902.0;;;13.6;88.61
48892;BME280;50130;52.150;5.236;2023-03-23T05:09:48;99882.0;;;13.47;89.09
48892;BME280;50130;52.150;5.236;2023-03-23T05:11:24;99889.0;;;13.53;89.16
48892;BME280;50130;52.150;5.236;2023-03-23T05:14:40;99899.0;;;13.44;88.8
48892;BME280;50130;52.150;5.236;2023-03-23T05:16:16;99900.0;;;13.38;89.35
48892;BME280;50130;52.150;5.236;2023-03-23T05:17:52;99902.0;;;13.38;90.19
48892;BME280;50130;52.150;5.236;2023-03-23T05:21:04;99901.0;;;13.33;91.31
48892;BME280;50130;52.150;5.236;2023-03-23T05:22:41;99886.0;;;13.14;91.81
48892;BME280;50130;52.150;5.236;2023-03-23T05:24:17;99901.0;;;13.15;92.83
48892;BME280;50130;52.150;5.236;2023-03-23T05:25:54;99919.0;;;12.99;94.73
48892;BME280;50130;52.150;5.236;2023-03-23T05:29:07;99905.0;;;12.96;95.95
48892;BME280;50130;52.150;5.236;2023-03-23T05:30:43;99908.0;;;12.85;96.87
48892;BME280;50130;52.150;5.236;2023-03-23T05:32:19;99920.0;;;12.73;97.97
48892;BME280;50130;52.150;5.236;2023-03-23T05:35:31;99906.0;;;12.52;98.83
48892;BME280;50130;52.150;5.236;2023-03-23T05:37:08;99909.0;;;12.47;99.39
48892;BME280;50130;52.150;5.236;2023-03-23T05:38:45;99912.0;;;12.47;99.76
48892;BME280;50130;52.150;5.236;2023-03-23T05:41:57;99912.0;;;12.43;100.0
48892;BME280;50130;52.150;5.236;2023-03-23T05:43:34;99914.0;;;12.51;99.93
48892;BME280;50130;52.150;5.236;2023-03-23T05:45:10;99915.0;;;12.54;99.49
48892;BME280;50130;52.150;5.236;2023-03-23T05:46:47;99915.0;;;12.6;99.49
48892;BME280;50130;52.150;5.236;2023-03-23T05:50:01;99915.0;;;12.48;99.47
48892;BME280;50130;52.150;5.236;2023-03-23T05:51:37;99925.0;;;12.45;100.0
48892;BME280;50130;52.150;5.236;2023-03-23T05:53:13;99920.0;;;12.41;100.0
48892;BME280;50130;52.150;5.236;2023-03-23T05:56:25;99931.0;;;12.33;100.0
48892;BME280;50130;52.150;5.236;2023-03-23T05:58:02;99937.0;;;12.42;100.0
48892;BME280;50130;52.150;5.236;2023-03-23T05:59:37;99940.0;;;12.41;100.0
48892;BME280;50130;52.150;5.236;2023-03-23T06:02:50;99927.0;;;12.41;100.0
48892;BME280;50130;52.150;5.236;2023-03-23T06:04:30;99932.0;;;12.34;100.0
48892;BME280;50130;52.150;5.236;2023-03-23T06:06:09;99934.0;;;12.4;100.0
48892;BME280;50130;52.150;5.236;2023-03-23T06:07:46;99931.0;;;12.39;100.0
48892;BME280;50130;52.150;5.236;2023-03-23T06:10:58;99932.0;;;12.37;100.0
48892;BME280;50130;52.150;5.236;2023-03-23T06:12:35;99939.0;;;12.38;100.0
48892;BME280;50130;52.150;5.236;2023-03-23T06:14:11;99953.0;;;12.31;100.0
48892;BME280;50130;52.150;5.236;2023-03-23T06:17:24;99950.0;;;12.3;100.0
48892;BME280;50130;52.150;5.236;2023-03-23T06:19:00;99949.0;;;12.34;100.0
48892;BME280;50130;52.150;5.236;2023-03-23T06:20:36;99941.0;;;12.31;100.0
48892;BME280;50130;52.150;5.236;2023-03-23T06:23:49;99957.0;;;12.22;100.0
48892;BME280;50130;52.150;5.236;2023-03-23T06:25:25;99958.0;;;12.19;100.0
48892;BME280;50130;52.150;5.236;2023-03-23T06:27:01;99968.0;;;12.12;100.0
48892;BME280;50130;52.150;5.236;2023-03-23T06:28:38;99969.0;;;12.12;100.0
48892;BME280;50130;52.150;5.236;2023-03-23T06:31:53;99963.0;;;12.14;100.0
48892;BME280;50130;52.150;5.236;2023-03-23T06:33:32;99971.0;;;12.18;100.0
48892;BME280;50130;52.150;5.236;2023-03-23T06:35:09;99972.0;;;12.17;100.0
48892;BME280;50130;52.150;5.236;2023-03-23T06:38:23;99987.0;;;12.1;100.0
48892;BME280;50130;52.150;5.236;2023-03-23T06:39:59;99980.0;;;12.11;100.0
48892;BME280;50130;52.150;5.236;2023-03-23T06:41:36;99984.0;;;12.23;100.0
48892;BME280;50130;52.150;5.236;2023-03-23T06:44:49;99978.0;;;12.17;100.0
48892;BME280;50130;52.150;5.236;2023-03-23T06:46:25;99994.0;;;12.28;100.0
48892;BME280;50130;52.150;5.236;2023-03-23T06:48:01;99986.0;;;12.18;100.0
48892;BME280;50130;52.150;5.236;2023-03-23T06:49:37;99989.0;;;12.14;100.0
48892;BME280;50130;52.150;5.236;2023-03-23T06:52:50;99987.0;;;12.19;100.0
48892;BME280;50130;52.150;5.236;2023-03-23T06:54:27;99994.0;;;12.3;100.0
48892;BME280;50130;52.150;5.236;2023-03-23T06:56:03;99993.0;;;12.34;100.0
48892;BME280;50130;52.150;5.236;2023-03-23T06:59:15;99987.0;;;12.33;100.0
48892;BME280;50130;52.150;5.236;2023-03-23T07:00:53;99997.0;;;12.34;100.0
48892;BME280;50130;52.150;5.236;2023-03-23T07:02:29;99999.0;;;12.36;100.0
48892;BME280;50130;52.150;5.236;2023-03-23T07:05:42;100000.0;;;12.43;100.0
48892;BME280;50130;52.150;5.236;2023-03-23T07:07:22;99991.0;;;12.43;100.0
48892;BME280;50130;52.150;5.236;2023-03-23T07:08:58;99998.0;;;12.48;100.0
48892;BME280;50130;52.150;5.236;2023-03-23T07:10:34;99998.0;;;12.6;100.0
48892;BME280;50130;52.150;5.236;2023-03-23T07:13:46;99995.0;;;12.48;100.0
48892;BME280;50130;52.150;5.236;2023-03-23T07:15:23;100003.0;;;12.52;100.0
48892;BME280;50130;52.150;5.236;2023-03-23T07:16:58;100001.0;;;12.52;100.0
48892;BME280;50130;52.150;5.236;2023-03-23T07:20:11;100002.0;;;12.56;100.0
48892;BME280;50130;52.150;5.236;2023-03-23T07:21:48;100005.0;;;12.65;100.0
48892;BME280;50130;52.150;5.236;2023-03-23T07:23:24;100008.0;;;12.58;100.0
48892;BME280;50130;52.150;5.236;2023-03-23T07:26:36;100005.0;;;12.4;100.0
48892;BME280;50130;52.150;5.236;2023-03-23T07:28:12;100006.0;;;12.55;100.0
48892;BME280;50130;52.150;5.236;2023-03-23T07:29:49;100012.0;;;12.54;100.0
48892;BME280;50130;52.150;5.236;2023-03-23T07:34:41;100011.0;;;12.65;100.0
48892;BME280;50130;52.150;5.236;2023-03-23T07:36:17;100016.0;;;12.67;100.0
48892;BME280;50130;52.150;5.236;2023-03-23T07:37:53;100015.0;;;12.77;100.0
48892;BME280;50130;52.150;5.236;2023-03-23T07:41:07;100020.0;;;12.73;100.0
48892;BME280;50130;52.150;5.236;2023-03-23T07:42:44;100025.0;;;12.79;100.0
48892;BME280;50130;52.150;5.236;2023-03-23T07:44:22;100037.0;;;12.83;100.0
48892;BME280;50130;52.150;5.236;2023-03-23T07:45:58;100037.0;;;12.85;100.0
48892;BME280;50130;52.150;5.236;2023-03-23T07:49:10;100032.0;;;12.73;100.0
48892;BME280;50130;52.150;5.236;2023-03-23T07:50:47;100033.0;;;12.85;99.9
48892;BME280;50130;52.150;5.236;2023-03-23T07:52:23;100030.0;;;12.91;99.37
48892;BME280;50130;52.150;5.236;2023-03-23T07:55:35;100011.0;;;12.9;99.26
48892;BME280;50130;52.150;5.236;2023-03-23T07:57:11;100017.0;;;12.89;99.33
48892;BME280;50130;52.150;5.236;2023-03-23T07:58:47;100017.0;;;12.8;99.63
48892;BME280;50130;52.150;5.236;2023-03-23T08:02:02;100024.0;;;12.91;99.89
48892;BME280;50130;52.150;5.236;2023-03-23T08:03:38;100027.0;;;12.87;100.0
48892;BME280;50130;52.150;5.236;2023-03-23T08:05:14;100038.0;;;12.76;100.0
48892;BME280;50130;52.150;5.236;2023-03-23T08:08:27;100031.0;;;12.97;100.0
48892;BME280;50130;52.150;5.236;2023-03-23T08:10:04;100034.0;;;12.98;99.88
48892;BME280;50130;52.150;5.236;2023-03-23T08:11:40;100041.0;;;13.03;98.9
48892;BME280;50130;52.150;5.236;2023-03-23T08:13:17;100046.0;;;12.98;99.3
48892;BME280;50130;52.150;5.236;2023-03-23T08:16:30;100041.0;;;12.95;99.15
48892;BME280;50130;52.150;5.236;2023-03-23T08:18:06;100048.0;;;13.0;98.48
48892;BME280;50130;52.150;5.236;2023-03-23T08:19:43;100045.0;;;12.91;97.56
48892;BME280;50130;52.150;5.236;2023-03-23T08:22:56;100038.0;;;13.04;98.61
48892;BME280;50130;52.150;5.236;2023-03-23T08:24:33;100048.0;;;12.97;97.94
48892;BME280;50130;52.150;5.236;2023-03-23T08:26:09;100052.0;;;12.92;97.83
48892;BME280;50130;52.150;5.236;2023-03-23T08:29:23;100042.0;;;12.96;97.9
48892;BME280;50130;52.150;5.236;2023-03-23T08:30:59;100039.0;;;13.05;97.15
48892;BME280;50130;52.150;5.236;2023-03-23T08:32:36;100046.0;;;13.09;96.72
48892;BME280;50130;52.150;5.236;2023-03-23T08:34:12;100045.0;;;13.19;96.45
48892;BME280;50130;52.150;5.236;2023-03-23T08:37:31;100056.0;;;13.31;96.0
48892;BME280;50130;52.150;5.236;2023-03-23T08:39:08;100059.0;;;13.32;95.63
48892;BME280;50130;52.150;5.236;2023-03-23T08:40:44;100066.0;;;13.21;95.38
48892;BME280;50130;52.150;5.236;2023-03-23T08:43:56;100067.0;;;13.38;95.3
48892;BME280;50130;52.150;5.236;2023-03-23T08:45:32;100056.0;;;13.27;95.09
48892;BME280;50130;52.150;5.236;2023-03-23T08:47:08;100062.0;;;13.23;94.26
48892;BME280;50130;52.150;5.236;2023-03-23T08:48:45;100058.0;;;13.26;93.07
48892;BME280;50130;52.150;5.236;2023-03-23T08:52:01;100060.0;;;13.37;93.88
48892;BME280;50130;52.150;5.236;2023-03-23T08:53:38;100064.0;;;13.36;95.36
48892;BME280;50130;52.150;5.236;2023-03-23T08:55:15;100063.0;;;13.3;95.4
48892;BME280;50130;52.150;5.236;2023-03-23T08:58:28;100073.0;;;13.32;95.43
48892;BME280;50130;52.150;5.236;2023-03-23T09:00:07;100081.0;;;13.45;95.19
48892;BME280;50130;52.150;5.236;2023-03-23T09:01:45;100074.0;;;13.42;95.31
48892;BME280;50130;52.150;5.236;2023-03-23T09:04:57;100074.0;;;13.57;93.98
48892;BME280;50130;52.150;5.236;2023-03-23T09:06:34;100072.0;;;13.57;95.05
48892;BME280;50130;52.150;5.236;2023-03-23T09:08:10;100073.0;;;13.63;93.36
48892;BME280;50130;52.150;5.236;2023-03-23T09:09:47;100082.0;;;13.76;93.46
48892;BME280;50130;52.150;5.236;2023-03-23T09:12:59;100082.0;;;13.78;92.22
48892;BME280;50130;52.150;5.236;2023-03-23T09:14:36;100089.0;;;13.94;92.77
48892;BME280;50130;52.150;5.236;2023-03-23T09:16:13;100086.0;;;13.94;91.68
48892;BME280;50130;52.150;5.236;2023-03-23T09:19:28;100087.0;;;14.11;91.21
48892;BME280;50130;52.150;5.236;2023-03-23T09:21:05;100093.0;;;13.98;91.19
48892;BME280;50130;52.150;5.236;2023-03-23T09:22:44;100085.0;;;13.88;88.24
48892;BME280;50130;52.150;5.236;2023-03-23T09:24:21;100084.0;;;13.73;86.42
48892;BME280;50130;52.150;5.236;2023-03-23T09:27:37;100083.0;;;13.73;87.1
48892;BME280;50130;52.150;5.236;2023-03-23T09:29:14;100081.0;;;13.77;85.88
48892;BME280;50130;52.150;5.236;2023-03-23T09:30:50;100086.0;;;13.87;87.76
48892;BME280;50130;52.150;5.236;2023-03-23T09:34:02;100075.0;;;13.99;86.37
48892;BME280;50130;52.150;5.236;2023-03-23T09:35:38;100089.0;;;14.1;86.52
48892;BME280;50130;52.150;5.236;2023-03-23T09:37:15;100093.0;;;14.25;86.16
48892;BME280;50130;52.150;5.236;2023-03-23T09:40:33;100091.0;;;14.17;83.9
48892;BME280;50130;52.150;5.236;2023-03-23T09:42:31;100098.0;;;14.35;83.33
48892;BME280;50130;52.150;5.236;2023-03-23T09:44:18;100101.0;;;14.44;84.31
48892;BME280;50130;52.150;5.236;2023-03-23T09:46:08;100105.0;;;14.48;81.52
48892;BME280;50130;52.150;5.236;2023-03-23T09:48:12;100092.0;;;14.48;82.71
48892;BME280;50130;52.150;5.236;2023-03-23T09:50:10;100103.0;;;14.5;83.42
48892;BME280;50130;52.150;5.236;2023-03-23T09:51:50;100108.0;;;14.49;82.39
48892;BME280;50130;52.150;5.236;2023-03-23T09:55:16;100107.0;;;14.5;81.88
48892;BME280;50130;52.150;5.236;2023-03-23T09:56:54;100112.0;;;14.45;82.77
48892;BME280;50130;52.150;5.236;2023-03-23T09:58:36;100116.0;;;14.49;81.91
48892;BME280;50130;52.150;5.236;2023-03-23T10:00:22;100127.0;;;14.57;82.21
48892;BME280;50130;52.150;5.236;2023-03-23T10:02:11;100126.0;;;14.58;81.05
48892;BME280;50130;52.150;5.236;2023-03-23T10:05:53;100121.0;;;14.64;81.2
48892;BME280;50130;52.150;5.236;2023-03-23T10:07:30;100125.0;;;14.6;79.37
48892;BME280;50130;52.150;5.236;2023-03-23T10:09:08;100132.0;;;14.53;78.24
48892;BME280;50130;52.150;5.236;2023-03-23T10:10:57;100137.0;;;14.68;78.91
48892;BME280;50130;52.150;5.236;2023-03-23T10:12:42;100133.0;;;14.72;80.47
48892;BME280;50130;52.150;5.236;2023-03-23T10:16:19;100136.0;;;14.75;78.08
48892;BME280;50130;52.150;5.236;2023-03-23T10:18:08;100136.0;;;14.8;78.63
48892;BME280;50130;52.150;5.236;2023-03-23T10:19:53;100152.0;;;14.84;77.94
48892;BME280;50130;52.150;5.236;2023-03-23T10:21:52;100142.0;;;14.89;78.39
48892;BME280;50130;52.150;5.236;2023-03-23T10:23:44;100156.0;;;14.94;78.66
48892;BME280;50130;52.150;5.236;2023-03-23T10:25:29;100141.0;;;14.9;78.94
48892;BME280;50130;52.150;5.236;2023-03-23T10:27:17;100143.0;;;14.87;79.11
48892;BME280;50130;52.150;5.236;2023-03-23T10:30:39;100148.0;;;14.9;77.97
48892;BME280;50130;52.150;5.236;2023-03-23T10:32:18;100146.0;;;14.87;77.69
48892;BME280;50130;52.150;5.236;2023-03-23T10:34:01;100140.0;;;14.95;78.94
48892;BME280;50130;52.150;5.236;2023-03-23T10:35:44;100156.0;;;14.8;74.97
48892;BME280;50130;52.150;5.236;2023-03-23T10:37:37;100161.0;;;14.62;75.83
48892;BME280;50130;52.150;5.236;2023-03-23T10:41:00;100157.0;;;14.65;77.83
48892;BME280;50130;52.150;5.236;2023-03-23T10:42:41;100149.0;;;14.71;76.83
48892;BME280;50130;52.150;5.236;2023-03-23T10:44:18;100151.0;;;14.88;77.27
48892;BME280;50130;52.150;5.236;2023-03-23T10:46:02;100165.0;;;14.92;76.28
48892;BME280;50130;52.150;5.236;2023-03-23T10:49:36;100167.0;;;14.96;76.22
48892;BME280;50130;52.150;5.236;2023-03-23T10:51:17;100155.0;;;14.98;74.64
48892;BME280;50130;52.150;5.236;2023-03-23T10:52:57;100150.0;;;15.14;75.19
48892;BME280;50130;52.150;5.236;2023-03-23T10:54:37;100151.0;;;15.24;75.86
48892;BME280;50130;52.150;5.236;2023-03-23T10:58:03;100157.0;;;15.2;74.08
48892;BME280;50130;52.150;5.236;2023-03-23T10:59:41;100152.0;;;15.24;73.11
48892;BME280;50130;52.150;5.236;2023-03-23T11:01:18;100175.0;;;15.37;74.09
48892;BME280;50130;52.150;5.236;2023-03-23T11:02:59;100163.0;;;15.48;73.16
48892;BME280;50130;52.150;5.236;2023-03-23T11:06:20;100163.0;;;15.57;72.25
48892;BME280;50130;52.150;5.236;2023-03-23T11:07:59;100169.0;;;15.73;71.7
48892;BME280;50130;52.150;5.236;2023-03-23T11:09:37;100176.0;;;15.8;70.62
48892;BME280;50130;52.150;5.236;2023-03-23T11:11:16;100175.0;;;15.95;70.13
48892;BME280;50130;52.150;5.236;2023-03-23T11:14:35;100170.0;;;15.94;70.63
48892;BME280;50130;52.150;5.236;2023-03-23T11:16:23;100170.0;;;15.96;68.36
48892;BME280;50130;52.150;5.236;2023-03-23T11:18:02;100178.0;;;16.06;69.13
48892;BME280;50130;52.150;5.236;2023-03-23T11:19:39;100159.0;;;16.13;67.91